Pulaski, Virginia
Current Conditions -  °F | °C
As of 7:15 AM on Monday 24 Nov 2014 (Local Time) from KPSK Reporting Station
Overcast Overcast  
Wind Chill: 55°   Ceiling: 1400
Heat Index: 55°   Visibility: 10mi
Dew Point: 53°   Wind: 7mph
Humidity: 94%   Direction: 190°S
Pressure: 29.71"   Gusts: NA
Location:  37.05°N, 80.78°W
Report Text: KPSK 241215Z AUTO 19006KT 10SM OVC014 13/12 A2971 RMK AO2 T01250116
Loading
Personal Weather Stations






























Interactive Weather Map New forecast layout! Learn more

10-Day Weather Forecast

Advertisements
Track Severe Weather on mobile